createdAt,value
2022-09-03T00:01:08.584Z,79.3
2022-09-03T00:06:43.418Z,79.4
2022-09-03T00:12:18.374Z,79.4
2022-09-03T00:17:53.534Z,79.5
2022-09-03T00:23:50.312Z,79.5
2022-09-03T00:29:25.071Z,79.4
2022-09-03T00:34:59.983Z,79.3
2022-09-03T00:40:34.997Z,79.1
2022-09-03T00:46:10.150Z,79.1
2022-09-03T00:51:45.815Z,79.1
2022-09-03T00:57:21.018Z,79.1
2022-09-03T01:02:56.185Z,79.1
2022-09-03T01:08:31.188Z,79
2022-09-03T01:14:06.414Z,79
2022-09-03T01:19:42.410Z,78.7
2022-09-03T01:25:39.012Z,78.7
2022-09-03T01:31:31.691Z,79
2022-09-03T01:37:07.296Z,79.2
2022-09-03T01:43:04.260Z,79.1
2022-09-03T01:48:37.860Z,79.3
2022-09-03T01:54:21.789Z,79.3
2022-09-03T01:59:56.638Z,79.5
2022-09-03T02:05:31.713Z,79.7
2022-09-03T02:11:06.481Z,79.8
2022-09-03T02:16:41.261Z,79.9
2022-09-03T02:22:38.295Z,79.9
2022-09-03T02:28:18.280Z,80.1
2022-09-03T02:33:53.789Z,80.3
2022-09-03T02:39:28.929Z,80.4
2022-09-03T02:45:04.645Z,80.6
2022-09-03T02:50:39.318Z,80.7
2022-09-03T02:56:15.156Z,80.7
2022-09-03T03:01:51.374Z,80.8
2022-09-03T03:07:27.764Z,80.9
2022-09-03T03:13:02.498Z,80.8
2022-09-03T03:18:37.212Z,80.8
2022-09-03T03:24:34.186Z,80.7
2022-09-03T03:30:07.824Z,80.9
2022-09-03T03:35:43.099Z,80.8
2022-09-03T03:41:17.893Z,80.7
2022-09-03T03:46:52.727Z,80.7
2022-09-03T03:52:27.561Z,80.8
2022-09-03T03:58:02.800Z,81
2022-09-03T04:03:38.950Z,81.1
2022-09-03T04:09:13.677Z,81.3
2022-09-03T04:14:48.438Z,81.4
2022-09-03T04:20:23.542Z,81.5
2022-09-03T04:26:19.968Z,81.4
2022-09-03T04:31:53.598Z,81.5
2022-09-03T04:37:28.536Z,81.5
2022-09-03T04:43:03.449Z,81.6
2022-09-03T04:48:39.309Z,81.7
2022-09-03T04:54:14.271Z,81.8
2022-09-03T04:59:49.324Z,81.8
2022-09-03T05:05:24.032Z,81.9
2022-09-03T05:10:58.861Z,81.9
2022-09-03T05:16:33.953Z,81.7
2022-09-03T05:22:11.050Z,81.3
2022-09-03T05:27:45.851Z,81.3
2022-09-03T05:33:20.543Z,81.5
2022-09-03T05:38:55.607Z,81.6
2022-09-03T05:44:33.340Z,81.8
2022-09-03T05:50:09.260Z,81.9
2022-09-03T05:55:44.206Z,82.8
2022-09-03T06:01:21.570Z,84.2
2022-09-03T06:06:56.589Z,84.8
2022-09-03T06:12:31.399Z,84.7
2022-09-03T06:18:12.123Z,84.7
2022-09-03T06:24:09.307Z,84
2022-09-03T06:29:42.103Z,83.9
2022-09-03T06:35:17.068Z,83.1
2022-09-03T06:40:52.012Z,83
2022-09-03T06:46:26.816Z,82.1
2022-09-03T06:52:01.931Z,82.3
2022-09-03T06:57:39.854Z,82.1
2022-09-03T07:03:14.461Z,80.7
2022-09-03T07:08:49.278Z,81.6
2022-09-03T07:14:34.194Z,80.5
2022-09-03T07:20:09.824Z,79.6
2022-09-03T07:26:06.761Z,77.2
2022-09-03T07:31:40.558Z,79.7
2022-09-03T07:37:16.176Z,77.5
2022-09-03T07:42:55.450Z,77.1
2022-09-03T07:48:37.547Z,76.1
2022-09-03T07:54:19.188Z,77.1
2022-09-03T07:59:53.983Z,74.3
2022-09-03T08:05:30.938Z,72.2
2022-09-03T08:11:06.301Z,69.5
2022-09-03T08:17:03.166Z,68.8
2022-09-03T08:22:36.997Z,68.4
2022-09-03T08:28:11.966Z,67.4
2022-09-03T08:33:46.819Z,67.2
2022-09-03T08:39:21.835Z,68.8
2022-09-03T08:44:57.614Z,67
2022-09-03T08:50:32.408Z,68.1
2022-09-03T08:56:07.482Z,71.1
2022-09-03T09:01:43.138Z,70.8
2022-09-03T09:07:19.961Z,71.5
2022-09-03T09:12:54.828Z,69.7
2022-09-03T09:18:29.884Z,71.6
2022-09-03T09:24:26.492Z,71.2
2022-09-03T09:30:00.147Z,69
2022-09-03T09:35:35.348Z,68.3
2022-09-03T09:41:11.169Z,67.2
2022-09-03T09:46:48.438Z,69.2
2022-09-03T09:52:29.864Z,69.4
2022-09-03T09:58:04.900Z,68.8
2022-09-03T10:03:40.200Z,69
2022-09-03T10:09:15.991Z,67.3
2022-09-03T10:14:52.395Z,64.4
2022-09-03T10:20:27.277Z,66.4
2022-09-03T10:26:24.600Z,63.8
2022-09-03T10:32:06.141Z,64
2022-09-03T10:38:02.813Z,64
2022-09-03T10:43:37.887Z,65.4
2022-09-03T10:49:12.774Z,61.9
2022-09-03T10:54:48.737Z,62.4
2022-09-03T11:00:23.955Z,58.8
2022-09-03T11:05:58.832Z,59.9
2022-09-03T11:11:34.117Z,59.7
2022-09-03T11:17:09.220Z,62.5
2022-09-03T11:22:44.083Z,64.8
2022-09-03T11:28:20.001Z,65.3
2022-09-03T11:33:54.794Z,65.7
2022-09-03T11:39:30.769Z,66.9
2022-09-03T11:45:08.082Z,66.7
2022-09-03T11:50:46.678Z,66.2
2022-09-03T11:56:21.676Z,65.5
2022-09-03T12:01:58.786Z,65.7
2022-09-03T12:07:36.655Z,66.4
2022-09-03T12:13:11.565Z,66.6
2022-09-03T12:18:46.393Z,66.9
2022-09-03T12:24:43.286Z,67.3
2022-09-03T12:30:18.090Z,66.5
2022-09-03T12:36:00.982Z,65.9
2022-09-03T12:41:36.587Z,65.2
2022-09-03T12:47:44.615Z,63.5
2022-09-03T12:53:20.459Z,63.6
2022-09-03T12:59:17.188Z,61.8
2022-09-03T13:04:51.781Z,64.5
2022-09-03T13:10:28.691Z,65.3
2022-09-03T13:16:04.920Z,65.3
2022-09-03T13:21:39.745Z,64.2
2022-09-03T13:27:14.613Z,63.9
2022-09-03T13:32:49.421Z,63.4
2022-09-03T13:38:47.047Z,64.5
2022-09-03T13:44:20.938Z,64.4
2022-09-03T13:50:17.922Z,65.4
2022-09-03T13:55:51.494Z,65.6
2022-09-03T14:01:27.740Z,64
2022-09-03T14:07:03.255Z,63.8
2022-09-03T14:12:38.265Z,64.4
2022-09-03T14:18:13.912Z,65.7
2022-09-03T14:24:10.383Z,64.7
2022-09-03T14:29:44.111Z,63.4
2022-09-03T14:35:20.205Z,61.6
2022-09-03T14:41:16.812Z,61
2022-09-03T14:46:50.764Z,61.8
2022-09-03T14:52:25.658Z,60.5
2022-09-03T14:58:01.523Z,61.9
2022-09-03T15:03:36.622Z,60.4
2022-09-03T15:09:11.726Z,61.9
2022-09-03T15:14:47.622Z,63.4
2022-09-03T15:20:47.151Z,64.8
2022-09-03T15:26:42.515Z,63.1
2022-09-03T15:32:17.295Z,65.5
2022-09-03T15:37:52.142Z,66.5
2022-09-03T15:43:27.144Z,65.5
2022-09-03T15:49:01.982Z,64.5
2022-09-03T15:54:37.278Z,68.1
2022-09-03T16:00:12.184Z,68.6
2022-09-03T16:06:17.390Z,67.4
2022-09-03T16:11:51.330Z,69.2
2022-09-03T16:17:26.162Z,66.7
2022-09-03T16:23:00.883Z,67
2022-09-03T16:28:35.883Z,68.3
2022-09-03T16:34:19.041Z,64.5
2022-09-03T16:39:55.654Z,66.1
2022-09-03T16:45:32.556Z,66.4
2022-09-03T16:51:08.305Z,69.8
2022-09-03T16:56:43.112Z,70.8
2022-09-03T17:02:42.126Z,70.6
2022-09-03T17:08:18.615Z,70.8
2022-09-03T17:13:53.823Z,71.8
2022-09-03T17:19:28.831Z,72.4
2022-09-03T17:25:03.771Z,72.5
2022-09-03T17:30:38.975Z,71.4
2022-09-03T17:36:13.792Z,73.7
2022-09-03T17:41:49.934Z,70.3
2022-09-03T17:47:25.675Z,70.7
2022-09-03T17:53:07.950Z,71.1
2022-09-03T17:58:42.996Z,72.1
2022-09-03T18:04:18.090Z,72.6
2022-09-03T18:09:54.198Z,72.4
2022-09-03T18:15:29.017Z,73.5
2022-09-03T18:21:27.741Z,75.2
2022-09-03T18:27:06.774Z,76.5
2022-09-03T18:32:47.175Z,77
2022-09-03T18:38:27.294Z,77.9
2022-09-03T18:44:02.070Z,79.6
2022-09-03T18:49:37.219Z,79.6
2022-09-03T18:55:11.894Z,80.2
2022-09-03T19:00:46.958Z,81.6
2022-09-03T19:06:21.884Z,82.2
2022-09-03T19:12:00.285Z,81.7
2022-09-03T19:17:36.098Z,82.5
2022-09-03T19:23:12.035Z,82.6
2022-09-03T19:28:46.877Z,81.2
2022-09-03T19:34:21.927Z,80
2022-09-03T19:39:57.219Z,79.4
2022-09-03T19:45:33.648Z,79.4
2022-09-03T19:51:08.721Z,79.3
2022-09-03T19:56:43.483Z,79.8
2022-09-03T20:02:19.286Z,79.7
2022-09-03T20:07:55.629Z,79.5
2022-09-03T20:13:30.438Z,79.6
2022-09-03T20:19:05.325Z,79.6
2022-09-03T20:25:02.090Z,79.5
2022-09-03T20:30:35.755Z,79.7
2022-09-03T20:36:10.581Z,79.6
2022-09-03T20:41:46.314Z,79.9
2022-09-03T20:47:21.014Z,79.8
2022-09-03T20:52:55.858Z,80.2
2022-09-03T20:58:30.592Z,80.6
2022-09-03T21:04:05.389Z,80.4
2022-09-03T21:09:40.198Z,80.6
2022-09-03T21:15:16.344Z,80.2
2022-09-03T21:20:51.475Z,80.4
2022-09-03T21:26:26.442Z,80.6
2022-09-03T21:32:02.336Z,80.6
2022-09-03T21:37:37.165Z,80.7
2022-09-03T21:43:12.215Z,80.9
2022-09-03T21:48:47.094Z,80.9
2022-09-03T21:54:22.074Z,80.9
2022-09-03T21:59:56.963Z,81
2022-09-03T22:05:31.776Z,81.3
2022-09-03T22:11:16.907Z,81.5
2022-09-03T22:16:51.889Z,81.5
2022-09-03T22:22:28.824Z,81.6
2022-09-03T22:28:03.608Z,81.6
2022-09-03T22:33:38.471Z,81.5
2022-09-03T22:39:13.328Z,81.5
2022-09-03T22:44:48.173Z,81.6
2022-09-03T22:50:23.329Z,81.7
2022-09-03T22:55:58.240Z,81.7
2022-09-03T23:01:33.472Z,81.8
2022-09-03T23:07:30.726Z,81.8
2022-09-03T23:13:04.374Z,82.1
2022-09-03T23:19:01.496Z,82
2022-09-03T23:24:35.456Z,82.3
2022-09-03T23:30:10.189Z,82.4
2022-09-03T23:35:44.989Z,82.5
2022-09-03T23:41:25.922Z,82.5
2022-09-03T23:47:00.927Z,82.4
2022-09-03T23:52:36.581Z,82.5
2022-09-03T23:58:11.271Z,82.5
